Time;durP1;ratioP1;P1;durP2;ratioP2;P2;SDS_P1;SDS_P2;PMS_P1;PMS_P2;Temp;Humidity;BMP_temperature;BMP_pressure;BME280_temperature;BME280_humidity;BME280_pressure;Samples;Min_cycle;Max_cycle;Signal;HPM_P1;HPM_P2
2022/06/24 00:01:53;;;;;;;6.80;1.80;;;19.90;99.90;;;;;;5053304;28;20494;-52
2022/06/24 00:04:23;;;;;;;8.63;2.23;;;19.80;99.90;;;;;;5047819;28;20487;-51
2022/06/24 00:06:50;;;;;;;9.63;3.07;;;19.70;99.90;;;;;;5032389;28;20569;-52
2022/06/24 00:09:17;;;;;;;5.63;2.47;;;19.70;99.90;;;;;;5050440;28;20501;-52
2022/06/24 00:11:46;;;;;;;5.10;2.00;;;19.80;99.90;;;;;;5044641;28;21015;-52
2022/06/24 00:14:15;;;;;;;4.73;1.73;;;19.80;99.90;;;;;;5057241;28;20478;-52
2022/06/24 00:16:58;;;;;;;3.97;1.53;;;19.90;99.90;;;;;;5048343;28;20490;-52
2022/06/24 00:19:26;;;;;;;4.50;1.87;;;20.10;99.90;;;;;;5029387;28;20498;-52
2022/06/24 00:22:09;;;;;;;6.70;1.97;;;20.20;99.90;;;;;;5050584;28;20908;-52
2022/06/24 00:24:37;;;;;;;4.97;1.90;;;20.40;99.90;;;;;;5042401;28;20483;-52
2022/06/24 00:27:17;;;;;;;5.40;2.20;;;20.40;99.90;;;;;;5046192;28;20485;-52
2022/06/24 00:29:44;;;;;;;3.40;1.73;;;20.40;99.90;;;;;;5050129;28;20554;-52
2022/06/24 00:32:11;;;;;;;4.23;2.00;;;20.30;99.90;;;;;;5057121;28;20486;-52
2022/06/24 00:34:39;;;;;;;4.87;1.70;;;20.20;99.90;;;;;;5059963;28;21026;-52
2022/06/24 00:37:27;;;;;;;3.50;2.13;;;20.10;99.90;;;;;;5033177;28;20909;-52
2022/06/24 00:39:55;;;;;;;5.80;2.40;;;20.00;99.90;;;;;;5027119;28;20491;-51
2022/06/24 00:42:24;;;;;;;7.83;2.40;;;19.90;99.90;;;;;;5056541;28;20470;-52
2022/06/24 00:44:56;;;;;;;4.17;1.67;;;19.90;99.90;;;;;;5059972;28;20470;-52
2022/06/24 00:47:25;;;;;;;3.13;1.83;;;19.90;99.90;;;;;;5048519;28;20484;-52
2022/06/24 00:49:54;;;;;;;4.43;1.73;;;20.00;99.90;;;;;;5055554;28;20486;-52
2022/06/24 00:52:20;;;;;;;6.03;2.10;;;20.20;99.90;;;;;;5038246;28;20541;-52
2022/06/24 00:54:47;;;;;;;9.07;3.67;;;20.20;99.90;;;;;;5057698;28;20479;-52
2022/06/24 00:57:15;;;;;;;3.83;2.33;;;20.20;99.90;;;;;;5052633;28;20559;-52
2022/06/24 00:59:43;;;;;;;5.60;2.33;;;20.20;99.90;;;;;;5035832;28;21020;-52
2022/06/24 01:02:11;;;;;;;4.83;2.00;;;20.20;99.90;;;;;;5053380;28;20497;-52
2022/06/24 01:04:38;;;;;;;14.20;2.00;;;20.10;99.90;;;;;;5048173;28;20620;-52
2022/06/24 01:07:05;;;;;;;4.03;1.70;;;20.00;99.90;;;;;;5057460;28;20493;-52
2022/06/24 01:09:31;;;;;;;4.80;2.60;;;20.00;99.90;;;;;;5059838;28;20482;-52
2022/06/24 01:11:58;;;;;;;2.43;2.20;;;19.90;99.90;;;;;;5059725;28;20478;-52
2022/06/24 01:14:25;;;;;;;5.27;2.50;;;19.90;99.90;;;;;;5061023;28;20925;-52
2022/06/24 01:16:53;;;;;;;5.80;2.30;;;20.00;99.90;;;;;;5020144;28;20467;-52
2022/06/24 01:19:20;;;;;;;3.43;2.20;;;20.00;99.90;;;;;;5048475;28;20849;-52
2022/06/24 01:21:49;;;;;;;5.90;2.57;;;20.00;99.90;;;;;;5048371;28;20509;-52
2022/06/24 01:24:18;;;;;;;4.87;2.20;;;20.00;99.90;;;;;;5047271;28;20486;-52
2022/06/24 01:26:48;;;;;;;2.63;2.00;;;20.00;99.90;;;;;;5051791;28;20497;-52
2022/06/24 01:29:15;;;;;;;9.27;3.00;;;20.00;99.90;;;;;;5044821;28;20493;-52
2022/06/24 01:31:42;;;;;;;7.00;2.60;;;20.10;99.90;;;;;;5044870;28;20484;-52
2022/06/24 01:34:09;;;;;;;4.57;1.93;;;20.10;99.90;;;;;;5051775;28;20667;-52
2022/06/24 01:36:36;;;;;;;4.47;2.23;;;20.10;99.90;;;;;;5054262;28;20481;-52
2022/06/24 01:39:05;;;;;;;3.80;2.40;;;20.10;99.90;;;;;;5048122;28;20954;-52
2022/06/24 01:41:32;;;;;;;3.50;2.33;;;20.00;99.90;;;;;;5058875;28;21088;-52
2022/06/24 01:43:59;;;;;;;3.83;2.67;;;19.90;99.90;;;;;;5048499;28;20842;-52
2022/06/24 01:46:26;;;;;;;9.33;2.70;;;19.90;99.90;;;;;;5048131;28;20577;-52
2022/06/24 01:48:53;;;;;;;3.70;2.37;;;19.90;99.90;;;;;;5057328;28;20560;-52
2022/06/24 01:51:22;;;;;;;5.17;2.57;;;19.80;99.90;;;;;;5041807;28;20505;-52
2022/06/24 01:53:49;;;;;;;7.20;2.57;;;19.80;99.90;;;;;;5052246;28;20484;-52
2022/06/24 01:56:18;;;;;;;4.67;2.30;;;19.60;99.90;;;;;;5049492;28;20474;-52
2022/06/24 01:58:45;;;;;;;7.53;2.83;;;19.50;99.90;;;;;;5054001;28;21079;-52
2022/06/24 02:01:12;;;;;;;2.70;2.20;;;19.50;99.90;;;;;;5060268;28;20490;-53
2022/06/24 02:03:40;;;;;;;7.73;3.50;;;19.40;99.90;;;;;;5053919;28;20890;-52
2022/06/24 02:06:09;;;;;;;4.33;2.63;;;19.30;99.90;;;;;;5051483;28;21231;-52
2022/06/24 02:08:36;;;;;;;4.00;2.57;;;19.30;99.90;;;;;;5057545;28;20499;-53
2022/06/24 02:13:49;;;;;;;4.00;2.97;;;19.10;99.90;;;;;;5047016;28;20607;-55
2022/06/24 02:16:18;;;;;;;4.50;3.10;;;19.10;99.90;;;;;;5056735;28;20466;-52
2022/06/24 02:18:45;;;;;;;7.30;3.87;;;19.00;99.90;;;;;;5055713;28;20837;-52
2022/06/24 02:21:12;;;;;;;9.30;3.73;;;18.90;99.90;;;;;;5060276;28;20929;-52
2022/06/24 02:23:39;;;;;;;7.03;2.80;;;19.00;99.90;;;;;;5043829;28;20486;-53
2022/06/24 02:26:06;;;;;;;6.17;2.70;;;18.90;99.90;;;;;;5049893;28;20873;-52
2022/06/24 02:28:33;;;;;;;6.60;3.30;;;18.90;99.90;;;;;;5056812;28;20482;-52
2022/06/24 02:31:02;;;;;;;5.53;2.97;;;18.90;99.90;;;;;;5061078;28;20471;-52
2022/06/24 02:33:29;;;;;;;7.17;4.13;;;18.90;99.90;;;;;;5043890;28;20491;-52
2022/06/24 02:35:56;;;;;;;7.90;3.10;;;18.90;99.90;;;;;;5057588;28;20518;-52
2022/06/24 02:38:23;;;;;;;8.90;3.23;;;18.80;99.90;;;;;;5034115;28;20489;-52
2022/06/24 02:40:51;;;;;;;3.73;3.10;;;18.90;99.90;;;;;;5060677;28;20811;-53
2022/06/24 02:43:19;;;;;;;6.00;3.40;;;18.90;99.90;;;;;;5061129;28;20821;-52
2022/06/24 02:45:48;;;;;;;14.40;4.40;;;18.80;99.90;;;;;;5029051;28;20842;-53
2022/06/24 02:48:17;;;;;;;5.90;3.30;;;18.70;99.90;;;;;;5059926;28;20526;-53
2022/06/24 02:50:46;;;;;;;8.87;3.97;;;18.70;99.90;;;;;;5036480;28;20576;-53
2022/06/24 02:53:14;;;;;;;4.80;3.63;;;18.70;99.90;;;;;;5042428;28;20498;-53
2022/06/24 02:55:42;;;;;;;4.43;3.13;;;18.60;99.90;;;;;;5047348;28;20491;-53
2022/06/24 02:58:09;;;;;;;7.50;3.40;;;18.70;99.90;;;;;;5035370;28;21139;-52
2022/06/24 03:00:36;;;;;;;6.97;3.37;;;18.60;99.90;;;;;;5045952;28;20497;-54
2022/06/24 03:03:03;;;;;;;10.20;4.30;;;18.60;99.90;;;;;;5032092;28;21001;-52
2022/06/24 03:05:31;;;;;;;4.40;3.53;;;18.70;99.90;;;;;;5056627;28;20481;-52
2022/06/24 03:07:58;;;;;;;9.37;4.63;;;18.70;99.90;;;;;;5052074;28;20910;-51
2022/06/24 03:10:25;;;;;;;13.93;4.60;;;18.80;99.90;;;;;;5049298;28;20493;-52
2022/06/24 03:12:51;;;;;;;9.73;5.00;;;18.80;99.90;;;;;;5030369;28;20804;-52
2022/06/24 03:15:19;;;;;;;10.43;3.63;;;18.80;99.90;;;;;;5050896;28;20473;-52
2022/06/24 03:17:46;;;;;;;8.17;3.83;;;18.90;99.90;;;;;;5043678;28;20846;-51
2022/06/24 03:20:13;;;;;;;13.60;4.53;;;18.90;99.90;;;;;;5018391;28;20544;-51
2022/06/24 03:22:42;;;;;;;6.67;3.63;;;18.90;99.90;;;;;;5054735;28;20556;-52
2022/06/24 03:25:09;;;;;;;11.40;5.03;;;18.90;99.90;;;;;;5050917;28;20906;-51
2022/06/24 03:27:36;;;;;;;5.87;5.03;;;18.90;99.90;;;;;;5050274;28;20980;-52
2022/06/24 03:30:05;;;;;;;6.13;4.70;;;19.00;99.90;;;;;;5052798;28;20479;-51
2022/06/24 03:32:32;;;;;;;27.20;5.43;;;19.00;99.90;;;;;;5035272;28;20483;-52
2022/06/24 03:34:58;;;;;;;6.00;4.70;;;19.00;99.90;;;;;;5049686;28;20482;-52
2022/06/24 03:37:25;;;;;;;5.83;4.50;;;18.90;99.90;;;;;;5046072;28;20512;-50
2022/06/24 03:39:53;;;;;;;9.60;4.57;;;18.90;99.90;;;;;;5049116;28;20488;-53
2022/06/24 03:42:20;;;;;;;8.13;4.03;;;18.90;99.90;;;;;;5038340;28;20493;-52
2022/06/24 03:44:47;;;;;;;7.87;4.20;;;18.80;99.90;;;;;;5045298;28;20493;-52
2022/06/24 03:47:14;;;;;;;8.57;4.10;;;18.80;99.90;;;;;;5050363;28;20479;-53
2022/06/24 03:49:41;;;;;;;5.80;3.80;;;18.80;99.90;;;;;;5042069;28;20990;-52
2022/06/24 03:52:09;;;;;;;4.63;3.70;;;18.70;99.90;;;;;;5052611;28;20481;-54
2022/06/24 03:54:36;;;;;;;10.23;3.53;;;18.70;99.90;;;;;;5050653;28;20739;-53
2022/06/24 03:57:06;;;;;;;4.83;4.27;;;18.80;99.90;;;;;;5043677;28;20486;-54
2022/06/24 03:59:32;;;;;;;8.23;4.07;;;18.80;99.90;;;;;;5049845;28;20475;-54
2022/06/24 04:01:59;;;;;;;9.33;3.70;;;18.80;99.90;;;;;;5033761;28;20660;-53
2022/06/24 04:04:26;;;;;;;4.90;3.33;;;18.80;99.90;;;;;;5023636;28;20495;-54
2022/06/24 04:06:53;;;;;;;4.70;3.70;;;18.80;99.90;;;;;;5037779;28;20483;-54
2022/06/24 04:09:19;;;;;;;7.43;3.93;;;18.90;99.90;;;;;;5050726;28;20483;-55
2022/06/24 04:11:46;;;;;;;11.90;4.83;;;19.00;99.90;;;;;;5041871;28;20478;-56
2022/06/24 04:14:14;;;;;;;5.07;4.27;;;18.90;99.90;;;;;;5040306;28;20536;-55
2022/06/24 04:17:03;;;;;;;7.10;4.20;;;19.00;99.90;;;;;;5030155;28;20462;-53
2022/06/24 04:19:30;;;;;;;7.73;3.33;;;19.00;99.90;;;;;;5038956;28;20497;-52
2022/06/24 04:21:56;;;;;;;5.30;3.40;;;19.00;99.90;;;;;;5038112;28;20483;-52
2022/06/24 04:24:23;;;;;;;9.10;4.70;;;19.00;99.90;;;;;;5030436;28;20493;-53
2022/06/24 04:26:50;;;;;;;6.57;4.23;;;19.00;99.90;;;;;;5026205;28;20878;-53
2022/06/24 04:29:18;;;;;;;9.53;4.60;;;19.00;99.90;;;;;;5041257;28;21030;-55
2022/06/24 04:31:45;;;;;;;9.27;5.00;;;19.10;99.90;;;;;;5037824;28;20901;-56
2022/06/24 04:34:11;;;;;;;9.70;4.67;;;19.10;99.90;;;;;;5048370;28;20489;-52
2022/06/24 04:36:38;;;;;;;7.63;3.40;;;19.10;99.90;;;;;;5029227;28;20481;-54
2022/06/24 04:39:05;;;;;;;7.50;4.20;;;19.10;99.90;;;;;;5048923;28;20495;-52
2022/06/24 04:41:31;;;;;;;5.40;3.70;;;19.10;99.90;;;;;;5057551;28;20477;-51
2022/06/24 04:43:58;;;;;;;9.73;3.93;;;19.20;99.90;;;;;;5040095;28;20996;-58
2022/06/24 04:46:26;;;;;;;6.47;3.90;;;19.30;99.90;;;;;;5052333;28;20836;-56
2022/06/24 04:48:53;;;;;;;11.57;3.30;;;19.50;99.90;;;;;;5045137;28;20485;-57
2022/06/24 04:51:20;;;;;;;4.60;3.50;;;19.50;99.90;;;;;;5049298;28;21163;-54
2022/06/24 04:53:46;;;;;;;9.20;4.10;;;19.60;99.90;;;;;;5046231;28;20964;-55
2022/06/24 04:56:13;;;;;;;10.53;4.13;;;19.50;99.90;;;;;;5048442;28;20768;-55
2022/06/24 04:58:40;;;;;;;5.13;3.33;;;19.60;99.90;;;;;;5050537;28;20487;-56
2022/06/24 05:01:06;;;;;;;7.30;5.37;;;19.60;99.90;;;;;;5044544;28;20509;-57
2022/06/24 05:03:34;;;;;;;12.80;4.87;;;19.60;99.90;;;;;;5030943;28;20561;-54
2022/06/24 05:06:01;;;;;;;10.57;5.33;;;19.50;99.90;;;;;;5036666;28;20491;-55
2022/06/24 05:08:28;;;;;;;8.03;4.40;;;19.40;99.90;;;;;;5051685;28;20493;-56
2022/06/24 05:10:55;;;;;;;6.80;5.30;;;19.30;99.90;;;;;;5046206;28;20455;-55
2022/06/24 05:13:21;;;;;;;10.93;4.93;;;19.30;99.90;;;;;;5037581;28;20486;-56
2022/06/24 05:15:48;;;;;;;6.87;4.77;;;19.30;99.90;;;;;;5027622;28;20492;-56
2022/06/24 05:18:15;;;;;;;6.33;4.53;;;19.30;99.90;;;;;;5052557;28;20470;-56
2022/06/24 05:20:43;;;;;;;9.73;4.40;;;19.30;99.90;;;;;;5043642;28;20490;-52
2022/06/24 05:23:09;;;;;;;6.43;5.17;;;19.30;99.90;;;;;;5049615;28;20475;-56
2022/06/24 05:25:36;;;;;;;4.10;3.80;;;19.10;99.90;;;;;;5057948;28;20483;-56
2022/06/24 05:28:03;;;;;;;7.83;5.43;;;19.20;99.90;;;;;;5033683;28;20992;-50
2022/06/24 05:30:29;;;;;;;8.03;4.53;;;19.10;99.90;;;;;;5060004;28;20471;-53
2022/06/24 05:32:56;;;;;;;6.73;6.13;;;19.20;99.90;;;;;;5052751;28;20495;-50
2022/06/24 05:35:23;;;;;;;6.27;5.57;;;19.20;99.90;;;;;;5051650;28;20494;-52
2022/06/24 05:37:51;;;;;;;7.13;6.43;;;19.30;99.90;;;;;;5016927;28;20486;-54
2022/06/24 05:40:18;;;;;;;8.87;6.10;;;19.50;99.90;;;;;;5047555;28;20497;-51
2022/06/24 05:42:44;;;;;;;9.53;6.30;;;19.60;99.90;;;;;;5037835;28;20498;-53
2022/06/24 05:45:11;;;;;;;10.10;6.37;;;19.60;99.90;;;;;;5048099;28;20486;-52
2022/06/24 05:47:38;;;;;;;7.03;5.63;;;19.80;99.90;;;;;;5046799;28;20479;-52
2022/06/24 05:50:05;;;;;;;6.13;5.50;;;19.90;99.90;;;;;;5054631;28;20993;-51
2022/06/24 05:55:18;;;;;;;9.43;4.30;;;20.20;99.90;;;;;;5059037;28;20529;-54
2022/06/24 05:57:45;;;;;;;8.73;5.80;;;20.40;99.90;;;;;;5048979;28;20477;-53
2022/06/24 06:00:12;;;;;;;5.83;5.20;;;20.50;99.90;;;;;;5046712;28;20495;-50
2022/06/24 06:02:39;;;;;;;4.07;3.67;;;20.60;99.90;;;;;;5042310;28;20478;-50
2022/06/24 06:05:06;;;;;;;6.23;4.20;;;20.70;99.90;;;;;;5057526;28;20772;-52
2022/06/24 06:07:32;;;;;;;5.93;4.40;;;20.60;99.90;;;;;;5056427;28;20489;-50
2022/06/24 06:09:59;;;;;;;9.13;5.20;;;20.60;99.90;;;;;;5053629;28;20466;-52
2022/06/24 06:12:27;;;;;;;5.00;4.47;;;20.50;99.90;;;;;;5049660;28;20500;-54
2022/06/24 06:14:54;;;;;;;8.87;4.60;;;20.50;99.90;;;;;;5046607;28;20474;-51
2022/06/24 06:17:20;;;;;;;7.80;5.30;;;20.60;99.90;;;;;;5033905;28;20480;-52
2022/06/24 06:19:47;;;;;;;4.93;4.40;;;20.60;99.90;;;;;;5055294;28;20494;-52
2022/06/24 06:22:14;;;;;;;6.87;4.63;;;20.70;99.90;;;;;;5050264;28;20510;-52
2022/06/24 06:24:41;;;;;;;7.10;4.90;;;20.80;99.90;;;;;;5043816;28;20497;-49
2022/06/24 06:27:08;;;;;;;12.83;5.20;;;20.90;99.90;;;;;;5047771;28;20478;-51
2022/06/24 06:29:36;;;;;;;5.40;4.90;;;20.80;99.90;;;;;;5043613;28;20530;-52
2022/06/24 06:32:03;;;;;;;7.70;6.07;;;20.90;99.90;;;;;;5048736;28;20814;-53
2022/06/24 06:34:31;;;;;;;7.10;4.20;;;20.90;99.90;;;;;;5054911;28;20478;-54
2022/06/24 06:36:58;;;;;;;8.47;4.67;;;20.80;99.90;;;;;;5046987;28;21053;-50
2022/06/24 06:39:24;;;;;;;5.50;3.30;;;20.90;99.90;;;;;;5038599;28;21077;-48
2022/06/24 06:41:51;;;;;;;3.70;3.40;;;20.90;99.90;;;;;;5055471;28;20907;-51
2022/06/24 06:44:18;;;;;;;9.20;4.53;;;20.90;99.90;;;;;;5046684;28;20491;-50
2022/06/24 06:46:46;;;;;;;6.90;3.67;;;20.90;99.90;;;;;;5047074;28;20487;-50
2022/06/24 06:49:12;;;;;;;5.67;4.20;;;20.80;99.90;;;;;;5049389;28;20498;-50
2022/06/24 06:51:39;;;;;;;5.60;3.77;;;20.90;99.90;;;;;;5049861;28;20521;-50
2022/06/24 06:54:06;;;;;;;5.07;3.27;;;20.90;99.90;;;;;;5044488;28;20968;-48
2022/06/24 06:56:32;;;;;;;4.77;4.37;;;20.90;99.90;;;;;;5051966;28;20482;-51
2022/06/24 06:58:59;;;;;;;5.70;3.40;;;21.00;99.90;;;;;;5037169;28;20848;-49
2022/06/24 07:01:26;;;;;;;10.43;4.13;;;21.20;99.90;;;;;;5059284;28;21014;-50
2022/06/24 07:03:54;;;;;;;7.03;3.10;;;21.20;99.90;;;;;;5045784;28;20475;-50
2022/06/24 07:06:21;;;;;;;4.83;3.37;;;21.50;99.90;;;;;;5044321;28;20487;-51
2022/06/24 07:08:48;;;;;;;3.83;3.30;;;21.50;99.90;;;;;;5040999;28;20489;-51
2022/06/24 07:11:14;;;;;;;7.10;3.97;;;21.60;99.90;;;;;;5052124;28;20483;-51
2022/06/24 07:13:41;;;;;;;9.13;4.30;;;21.70;99.90;;;;;;5045281;28;20498;-51
2022/06/24 07:16:10;;;;;;;5.43;4.53;;;20.80;99.90;;;;;;5026077;28;21046;-51
2022/06/24 07:18:37;;;;;;;6.40;3.17;;;21.50;99.90;;;;;;5034392;28;20747;-50
2022/06/24 07:21:05;;;;;;;6.10;4.00;;;21.30;99.90;;;;;;5051109;28;20881;-51
2022/06/24 07:23:32;;;;;;;5.13;3.90;;;21.20;99.90;;;;;;5061656;28;20908;-52
2022/06/24 07:25:59;;;;;;;3.57;2.80;;;21.20;99.90;;;;;;5055059;28;20488;-51
2022/06/24 07:28:26;;;;;;;4.60;4.17;;;21.10;99.90;;;;;;5063675;28;20490;-50
2022/06/24 07:30:53;;;;;;;5.33;3.60;;;21.10;99.90;;;;;;5053482;28;20477;-51
2022/06/24 07:33:19;;;;;;;4.07;3.67;;;21.10;99.90;;;;;;5042047;28;20482;-51
2022/06/24 07:35:46;;;;;;;4.53;4.10;;;21.10;99.90;;;;;;5046328;28;20482;-51
2022/06/24 07:38:14;;;;;;;8.87;4.63;;;21.10;99.90;;;;;;5052303;28;20878;-50
2022/06/24 07:40:41;;;;;;;3.73;3.33;;;21.10;99.90;;;;;;5051398;28;20847;-51
2022/06/24 07:43:08;;;;;;;8.00;3.60;;;21.10;99.90;;;;;;5044887;28;20486;-51
2022/06/24 07:45:35;;;;;;;4.20;3.83;;;21.30;99.90;;;;;;5052726;28;20470;-52
2022/06/24 07:48:02;;;;;;;3.90;3.37;;;21.60;99.90;;;;;;5060337;28;20590;-53
2022/06/24 07:50:28;;;;;;;3.90;3.60;;;21.70;99.90;;;;;;5034724;28;20969;-51
2022/06/24 07:52:55;;;;;;;6.00;4.33;;;21.80;99.90;;;;;;5040363;28;20486;-51
2022/06/24 07:58:07;;;;;;;4.87;4.33;;;22.40;99.90;;;;;;5051122;28;20537;-53
2022/06/24 08:00:34;;;;;;;3.80;3.50;;;22.80;99.90;;;;;;5060292;28;20478;-51
2022/06/24 08:03:00;;;;;;;3.63;3.40;;;23.00;99.00;;;;;;5054317;28;21393;-52
2022/06/24 08:05:27;;;;;;;3.80;2.90;;;23.10;99.30;;;;;;5064467;28;21105;-51
2022/06/24 08:07:54;;;;;;;3.03;2.73;;;23.30;98.40;;;;;;5061044;28;20893;-51
2022/06/24 08:10:22;;;;;;;4.77;4.03;;;23.30;98.30;;;;;;5057677;28;20474;-53
2022/06/24 08:12:49;;;;;;;6.70;3.70;;;23.30;97.40;;;;;;5060515;28;20491;-50
2022/06/24 08:15:17;;;;;;;3.10;2.90;;;23.20;97.50;;;;;;5051820;28;20914;-51
2022/06/24 08:17:44;;;;;;;6.23;4.33;;;23.20;97.40;;;;;;5053191;28;20679;-52
2022/06/24 08:20:11;;;;;;;6.17;3.43;;;23.20;97.50;;;;;;5055297;28;20563;-52
2022/06/24 08:22:38;;;;;;;2.87;2.60;;;23.20;97.50;;;;;;5059695;28;20478;-51
2022/06/24 08:25:06;;;;;;;6.70;4.97;;;23.40;97.20;;;;;;5066654;28;20710;-51
2022/06/24 08:27:34;;;;;;;4.30;3.90;;;23.50;96.70;;;;;;5052655;28;20485;-52
2022/06/24 08:30:01;;;;;;;4.27;3.87;;;23.70;97.90;;;;;;5049857;28;20545;-52
2022/06/24 08:32:28;;;;;;;8.13;3.47;;;23.70;96.60;;;;;;5022762;28;20471;-50
2022/06/24 08:34:54;;;;;;;6.23;3.80;;;23.60;96.40;;;;;;5047044;28;20480;-52
2022/06/24 08:37:21;;;;;;;4.20;3.90;;;23.40;95.20;;;;;;5054769;28;20489;-52
2022/06/24 08:39:48;;;;;;;5.20;3.30;;;23.40;96.10;;;;;;5062550;28;20485;-51
2022/06/24 08:42:14;;;;;;;5.13;2.90;;;23.40;96.30;;;;;;5063469;28;20928;-52
2022/06/24 08:44:42;;;;;;;4.10;3.40;;;23.60;96.50;;;;;;5038696;28;20549;-50
2022/06/24 08:47:14;;;;;;;3.70;3.40;;;23.90;94.90;;;;;;5029704;28;20486;-51
2022/06/24 08:49:41;;;;;;;2.63;2.43;;;24.00;96.30;;;;;;5045450;28;20498;-51
2022/06/24 08:52:10;;;;;;;5.10;3.03;;;24.20;95.40;;;;;;5048669;28;20612;-50
2022/06/24 08:54:42;;;;;;;3.30;2.70;;;24.20;95.80;;;;;;5043904;28;20485;-51
2022/06/24 08:57:09;;;;;;;2.77;2.50;;;24.30;95.60;;;;;;5039022;28;20494;-50
2022/06/24 08:59:36;;;;;;;2.90;2.43;;;24.60;95.50;;;;;;5057103;28;20478;-51
2022/06/24 09:02:04;;;;;;;3.70;3.00;;;24.60;93.90;;;;;;5052460;28;20650;-51
2022/06/24 09:04:33;;;;;;;3.00;2.00;;;24.70;93.10;;;;;;5040207;28;20573;-52
2022/06/24 09:07:01;;;;;;;2.60;2.27;;;24.90;93.20;;;;;;5059153;28;20549;-51
2022/06/24 09:09:29;;;;;;;3.23;2.80;;;25.10;92.50;;;;;;5060012;28;20482;-51
2022/06/24 09:11:58;;;;;;;3.53;2.00;;;25.10;92.90;;;;;;5057399;28;20469;-52
2022/06/24 09:14:44;;;;;;;2.23;2.03;;;25.30;90.30;;;;;;5055960;28;20484;-52
2022/06/24 09:17:12;;;;;;;4.03;3.27;;;25.20;91.20;;;;;;5052626;28;20582;-50
2022/06/24 09:19:39;;;;;;;2.20;1.90;;;25.30;92.20;;;;;;5065612;28;20541;-52
2022/06/24 09:22:06;;;;;;;3.50;2.10;;;25.50;92.40;;;;;;5067501;28;21388;-51
2022/06/24 09:24:45;;;;;;;2.80;2.57;;;25.70;91.50;;;;;;5039802;28;20917;-51
2022/06/24 09:27:12;;;;;;;3.93;2.87;;;25.70;92.40;;;;;;5058213;28;20812;-50
2022/06/24 09:29:47;;;;;;;2.13;1.90;;;26.10;92.30;;;;;;5061944;28;20779;-50
2022/06/24 09:32:15;;;;;;;3.03;2.70;;;26.10;90.20;;;;;;5061329;28;20564;-50
2022/06/24 09:35:07;;;;;;;2.10;1.90;;;26.10;90.60;;;;;;5067651;28;20485;-51
2022/06/24 09:37:38;;;;;;;2.60;2.20;;;26.20;90.00;;;;;;5058373;28;20474;-52
2022/06/24 09:40:24;;;;;;;4.70;2.50;;;26.20;90.00;;;;;;5020826;28;20478;-51
2022/06/24 09:42:56;;;;;;;2.50;2.00;;;26.30;91.00;;;;;;5058895;28;20469;-51
2022/06/24 09:45:23;;;;;;;2.80;2.00;;;26.30;91.00;;;;;;5063581;28;20478;-49
2022/06/24 09:47:52;;;;;;;2.67;2.47;;;26.60;89.60;;;;;;5050622;28;20485;-51
2022/06/24 09:50:20;;;;;;;3.03;2.60;;;26.20;88.10;;;;;;5065652;28;20485;-50
2022/06/24 09:52:47;;;;;;;5.10;1.77;;;26.20;87.50;;;;;;5052035;28;21022;-52
2022/06/24 09:55:14;;;;;;;5.40;2.40;;;25.90;87.80;;;;;;5058558;28;20806;-51
2022/06/24 09:57:41;;;;;;;5.87;2.00;;;25.80;89.50;;;;;;5055517;28;20485;-51
2022/06/24 10:02:56;;;;;;;2.97;1.97;;;25.80;90.00;;;;;;5065736;28;20547;-50
2022/06/24 10:05:26;;;;;;;2.40;2.20;;;25.90;87.80;;;;;;5060861;28;21030;-49
2022/06/24 10:07:55;;;;;;;2.20;2.00;;;26.10;88.80;;;;;;5036579;28;20983;-49
2022/06/24 10:10:23;;;;;;;6.40;2.30;;;26.40;91.10;;;;;;5050658;28;21077;-50
2022/06/24 10:12:58;;;;;;;1.90;1.70;;;26.60;90.60;;;;;;5052078;28;20481;-50
2022/06/24 10:15:25;;;;;;;4.13;2.53;;;27.00;90.80;;;;;;5063164;28;20473;-50
2022/06/24 10:17:52;;;;;;;3.07;1.83;;;27.30;87.50;;;;;;5059112;28;20471;-51
2022/06/24 10:20:21;;;;;;;3.70;2.47;;;27.00;87.50;;;;;;5064161;28;20916;-52
2022/06/24 10:22:49;;;;;;;2.40;2.20;;;27.10;86.40;;;;;;5064427;28;20437;-53
2022/06/24 10:25:42;;;;;;;2.73;2.47;;;27.20;85.60;;;;;;5066381;28;20479;-50
2022/06/24 10:28:09;;;;;;;5.53;2.60;;;27.10;83.90;;;;;;5062342;28;20454;-50
2022/06/24 10:30:57;;;;;;;3.37;2.60;;;27.00;85.20;;;;;;5062803;28;20460;-50
2022/06/24 10:33:28;;;;;;;3.03;2.20;;;26.90;84.50;;;;;;5065780;28;20514;-51
2022/06/24 10:35:58;;;;;;;2.90;2.70;;;26.70;83.20;;;;;;5054431;28;20689;-50
2022/06/24 10:38:26;;;;;;;3.43;2.40;;;26.70;87.60;;;;;;5058677;28;20460;-50
2022/06/24 10:40:53;;;;;;;3.33;2.20;;;27.10;85.60;;;;;;5022639;28;20480;-49
2022/06/24 10:43:34;;;;;;;2.77;2.10;;;27.00;85.20;;;;;;5052693;28;20485;-55
2022/06/24 10:46:17;;;;;;;6.00;2.93;;;26.70;83.90;;;;;;5050398;28;20570;-51
2022/06/24 10:49:02;;;;;;;3.10;2.43;;;26.70;83.80;;;;;;5047231;28;21073;-50
2022/06/24 10:51:34;;;;;;;6.27;2.83;;;26.30;81.70;;;;;;5045055;28;20543;-54
2022/06/24 10:54:13;;;;;;;3.63;2.83;;;25.90;84.50;;;;;;5044770;28;20477;-51
2022/06/24 10:56:45;;;;;;;2.57;2.37;;;26.00;86.10;;;;;;5053545;28;20478;-50
2022/06/24 10:59:12;;;;;;;2.90;2.00;;;26.00;86.80;;;;;;5044370;28;20557;-50
2022/06/24 11:01:42;;;;;;;2.47;2.27;;;26.10;85.80;;;;;;5060977;28;20787;-52
2022/06/24 11:04:11;;;;;;;2.40;2.20;;;26.30;85.10;;;;;;5049164;28;20472;-50
2022/06/24 11:06:39;;;;;;;2.97;2.43;;;26.40;85.70;;;;;;5048348;28;20698;-51
2022/06/24 11:09:06;;;;;;;4.77;2.67;;;26.70;86.20;;;;;;5052303;28;20994;-53
2022/06/24 11:11:34;;;;;;;3.23;2.37;;;26.80;85.30;;;;;;5050379;28;20477;-51
2022/06/24 11:14:01;;;;;;;2.93;2.63;;;26.40;81.00;;;;;;5063684;28;20683;-50
2022/06/24 11:16:28;;;;;;;3.50;2.40;;;26.40;83.70;;;;;;5058692;28;20465;-50
2022/06/24 11:18:55;;;;;;;2.33;2.13;;;26.50;84.90;;;;;;5063189;28;20944;-51
2022/06/24 11:21:22;;;;;;;6.93;2.60;;;26.60;84.90;;;;;;5049852;28;20487;-51
2022/06/24 11:23:54;;;;;;;3.47;2.30;;;26.60;86.30;;;;;;5051076;28;21149;-51
2022/06/24 11:26:21;;;;;;;2.60;2.27;;;26.50;84.00;;;;;;5052538;28;20484;-51
2022/06/24 11:28:52;;;;;;;2.17;1.97;;;26.40;85.90;;;;;;5064939;28;20876;-51
2022/06/24 11:31:21;;;;;;;2.50;2.30;;;26.40;85.70;;;;;;5052936;28;20589;-51
2022/06/24 11:33:49;;;;;;;2.73;2.50;;;26.40;83.60;;;;;;5060309;28;20470;-50
2022/06/24 11:36:19;;;;;;;3.43;2.87;;;26.40;83.10;;;;;;5048924;28;20994;-50
2022/06/24 11:38:57;;;;;;;2.47;1.87;;;26.50;82.70;;;;;;5051757;28;20828;-51
2022/06/24 11:41:25;;;;;;;2.40;2.07;;;26.60;83.60;;;;;;5053009;28;20470;-52
2022/06/24 11:43:52;;;;;;;2.50;2.23;;;26.90;83.90;;;;;;5054132;28;20480;-51
2022/06/24 11:46:19;;;;;;;2.20;1.93;;;26.90;83.80;;;;;;5060271;28;21366;-51
2022/06/24 11:48:46;;;;;;;5.33;2.37;;;27.20;82.00;;;;;;5063366;28;20881;-50
2022/06/24 11:51:19;;;;;;;2.67;2.20;;;27.30;82.70;;;;;;5051957;28;20475;-50
2022/06/24 11:53:57;;;;;;;4.50;2.10;;;27.60;82.10;;;;;;5062244;28;20557;-51
2022/06/24 11:56:27;;;;;;;2.27;1.73;;;27.70;83.30;;;;;;5051471;28;20496;-50
2022/06/24 11:58:54;;;;;;;3.80;2.67;;;27.80;82.20;;;;;;5062008;28;20469;-50
2022/06/24 12:01:21;;;;;;;2.90;2.20;;;27.80;79.10;;;;;;5065987;28;20819;-50
2022/06/24 12:03:50;;;;;;;10.60;2.93;;;27.70;78.80;;;;;;5065276;28;20474;-52
2022/06/24 12:06:17;;;;;;;2.13;1.93;;;27.60;79.90;;;;;;5054886;28;20470;-51
2022/06/24 12:08:44;;;;;;;3.47;1.70;;;27.60;78.70;;;;;;5062797;28;20852;-51
2022/06/24 12:11:16;;;;;;;5.60;1.87;;;27.70;76.90;;;;;;5063452;28;20445;-51
2022/06/24 12:13:43;;;;;;;2.10;1.87;;;27.70;77.80;;;;;;5060941;28;20849;-50
2022/06/24 12:16:10;;;;;;;2.30;1.93;;;27.40;81.40;;;;;;5060850;28;20584;-50
2022/06/24 12:18:37;;;;;;;6.00;2.33;;;27.30;81.00;;;;;;5064312;28;20928;-50
2022/06/24 12:21:05;;;;;;;2.10;1.60;;;27.30;81.80;;;;;;5055083;28;21093;-51
2022/06/24 12:23:34;;;;;;;3.27;2.00;;;27.00;80.30;;;;;;5059140;28;20487;-51
2022/06/24 12:26:06;;;;;;;3.00;1.90;;;27.00;78.70;;;;;;5054504;28;20464;-51
2022/06/24 12:28:36;;;;;;;4.33;2.10;;;27.10;82.60;;;;;;5059471;28;20482;-49
2022/06/24 12:31:04;;;;;;;2.70;2.10;;;27.30;83.00;;;;;;5062867;28;20497;-50
2022/06/24 12:33:33;;;;;;;3.20;2.47;;;27.30;83.80;;;;;;5061879;28;20474;-50
2022/06/24 12:36:10;;;;;;;2.73;2.00;;;27.20;79.50;;;;;;5050970;28;20449;-50
2022/06/24 12:38:38;;;;;;;3.13;2.53;;;27.00;78.40;;;;;;5057200;28;20544;-50
2022/06/24 12:41:13;;;;;;;8.90;2.07;;;27.00;80.70;;;;;;5058031;28;20978;-50
2022/06/24 12:43:56;;;;;;;2.40;1.97;;;27.40;78.70;;;;;;5064096;28;20478;-52
2022/06/24 12:46:25;;;;;;;2.50;2.30;;;27.40;79.80;;;;;;5045784;28;20609;-51
2022/06/24 12:51:44;;;;;;;2.53;1.90;;;27.70;80.60;;;;;;5059561;28;20518;-50
2022/06/24 12:54:12;;;;;;;2.53;1.80;;;27.80;80.10;;;;;;5055793;28;20537;-52
2022/06/24 12:56:39;;;;;;;1.87;1.30;;;27.80;77.70;;;;;;5057783;28;20477;-50
2022/06/24 12:59:07;;;;;;;3.07;2.00;;;27.60;76.20;;;;;;5052276;28;20477;-50
2022/06/24 13:01:41;;;;;;;1.90;1.70;;;27.60;77.20;;;;;;5056367;28;20478;-50
2022/06/24 13:04:08;;;;;;;2.10;1.67;;;27.40;80.00;;;;;;5032248;28;20878;-51
2022/06/24 13:06:35;;;;;;;2.93;2.00;;;27.40;79.00;;;;;;5048991;28;21053;-50